Time;durP1;ratioP1;P1;durP2;ratioP2;P2;SDS_P1;SDS_P2;PMS_P1;PMS_P2;Temp;Humidity;BMP_temperature;BMP_pressure;BME280_temperature;BME280_humidity;BME280_pressure;Samples;Min_cycle;Max_cycle;Signal;HPM_P1;HPM_P2
2023/10/14 00:00:57;;;;;;;0.82;0.82;;;;;;;16.74;100.00;100516.44;5072823;28;20191;-75
2023/10/14 00:03:28;;;;;;;1.00;1.00;;;;;;;16.71;100.00;100509.47;5072816;28;20195;-75
2023/10/14 00:06:00;;;;;;;1.30;1.00;;;;;;;16.62;100.00;100519.97;5072921;28;20636;-75
2023/10/14 00:08:31;;;;;;;1.75;0.98;;;;;;;16.72;100.00;100554.88;5072835;28;20252;-75
2023/10/14 00:11:01;;;;;;;0.95;0.95;;;;;;;16.52;100.00;100553.97;5072527;28;20256;-75
2023/10/14 00:13:31;;;;;;;2.15;1.45;;;;;;;16.13;100.00;100554.88;5054205;28;20211;-75
2023/10/14 00:16:01;;;;;;;1.63;1.52;;;;;;;15.80;100.00;100519.16;5072639;28;20199;-75
2023/10/14 00:18:29;;;;;;;1.88;1.75;;;;;;;16.10;100.00;100550.53;5072331;28;20206;-74
2023/10/14 00:20:56;;;;;;;2.60;1.83;;;;;;;16.10;100.00;100550.53;5072505;28;20666;-74
2023/10/14 00:23:24;;;;;;;3.38;2.20;;;;;;;15.92;100.00;100518.28;5072246;28;20290;-75
2023/10/14 00:25:52;;;;;;;0.90;0.90;;;;;;;15.99;100.00;100547.03;5072314;28;20318;-75
2023/10/14 00:28:19;;;;;;;0.88;0.88;;;;;;;15.99;100.00;100539.19;5072220;28;20685;-75
2023/10/14 00:30:47;;;;;;;1.60;1.50;;;;;;;16.03;100.00;100533.09;5072482;28;20290;-75
2023/10/14 00:33:14;;;;;;;2.05;1.30;;;;;;;15.95;100.00;100519.13;5072240;28;20253;-76
2023/10/14 00:35:43;;;;;;;1.90;1.52;;;;;;;15.94;100.00;100501.72;5072460;28;20241;-74
2023/10/14 00:38:15;;;;;;;1.15;1.15;;;;;;;15.97;100.00;100530.50;5071988;28;20642;-74
2023/10/14 00:40:45;;;;;;;3.45;3.15;;;;;;;15.92;100.00;100529.59;5072200;28;20195;-74
2023/10/14 00:43:12;;;;;;;14.57;6.00;;;;;;;15.90;100.00;100527.88;5072207;28;20195;-74
2023/10/14 00:45:43;;;;;;;1.80;1.25;;;;;;;15.76;100.00;100528.75;5071870;28;20219;-74
2023/10/14 00:48:13;;;;;;;1.90;1.33;;;;;;;15.57;100.00;100510.41;5072065;28;20221;-75
2023/10/14 00:50:41;;;;;;;1.40;1.38;;;;;;;15.57;100.00;100528.69;5071789;28;20202;-74
2023/10/14 00:53:09;;;;;;;1.20;1.10;;;;;;;15.64;100.00;100527.84;5071773;28;20206;-75
2023/10/14 00:55:46;;;;;;;1.45;1.35;;;;;;;15.62;100.00;100519.13;5053130;28;20195;-74
2023/10/14 00:58:20;;;;;;;0.90;0.90;;;;;;;15.70;100.00;100512.16;5071730;28;20197;-75
2023/10/14 01:00:57;;;;;;;2.45;2.25;;;;;;;15.59;100.00;100513.91;5071776;28;20197;-75
2023/10/14 01:03:25;;;;;;;1.60;1.50;;;;;;;15.54;100.00;100510.41;5069810;28;20725;-75
2023/10/14 01:05:56;;;;;;;2.08;1.42;;;;;;;15.61;100.00;100501.69;5071736;28;20244;-75
2023/10/14 01:08:25;;;;;;;2.72;2.40;;;;;;;14.99;100.00;100390.06;5071726;28;20260;-75
2023/10/14 01:10:52;;;;;;;1.88;1.67;;;;;;;15.49;100.00;100491.22;5071365;28;20205;-75
2023/10/14 01:13:22;;;;;;;0.95;0.95;;;;;;;15.37;100.00;100477.22;5071536;28;20199;-75
2023/10/14 01:15:51;;;;;;;2.92;1.10;;;;;;;15.48;100.00;100485.06;5071564;28;20199;-75
2023/10/14 01:18:18;;;;;;;1.33;1.25;;;;;;;15.48;100.00;100484.22;5071820;28;20194;-76
2023/10/14 01:20:46;;;;;;;2.25;2.05;;;;;;;15.53;100.00;100477.28;5071610;28;20206;-75
2023/10/14 01:23:16;;;;;;;7.47;1.52;;;;;;;15.61;100.00;100480.78;5071685;28;20203;-74
2023/10/14 01:25:48;;;;;;;1.70;1.63;;;;;;;15.58;100.00;100480.78;5071277;28;20227;-74
2023/10/14 01:28:21;;;;;;;3.92;1.80;;;;;;;15.55;100.00;100479.06;5071484;28;20198;-75
2023/10/14 01:31:09;;;;;;;0.85;0.85;;;;;;;15.54;100.00;100479.03;5037731;28;20205;-76
2023/10/14 01:33:36;;;;;;;1.05;1.05;;;;;;;15.39;100.00;100470.28;5071364;28;20203;-74
2023/10/14 01:36:03;;;;;;;1.38;1.27;;;;;;;15.39;100.00;100466.78;5070972;28;20238;-74
2023/10/14 01:38:31;;;;;;;1.15;1.00;;;;;;;15.47;100.00;100464.19;5071371;28;20198;-75
2023/10/14 01:41:03;;;;;;;1.33;1.23;;;;;;;15.44;100.00;100466.78;5071177;28;20234;-75
2023/10/14 01:43:31;;;;;;;0.82;0.82;;;;;;;15.48;100.00;100464.16;5071408;28;20198;-75
2023/10/14 01:46:01;;;;;;;0.73;0.73;;;;;;;15.50;100.00;100456.38;5071251;28;20234;-75
2023/10/14 01:48:31;;;;;;;1.85;1.73;;;;;;;15.63;100.00;100463.34;5071328;28;20222;-73
2023/10/14 01:50:58;;;;;;;0.95;0.95;;;;;;;15.76;100.00;100466.00;5071097;28;20206;-75
2023/10/14 01:53:27;;;;;;;1.50;1.42;;;;;;;15.75;100.00;100463.34;5071470;28;20276;-75
2023/10/14 01:55:58;;;;;;;1.05;1.05;;;;;;;15.82;100.00;100459.88;5036257;28;20206;-74
2023/10/14 01:58:30;;;;;;;1.33;1.23;;;;;;;15.81;100.00;100464.22;5071052;28;20635;-74
2023/10/14 02:01:04;;;;;;;1.75;1.63;;;;;;;15.82;100.00;100459.88;5071086;28;20206;-76
2023/10/14 02:03:35;;;;;;;1.52;1.42;;;;;;;15.70;100.00;100455.50;5070946;28;20201;-76
2023/10/14 02:06:10;;;;;;;1.60;1.50;;;;;;;15.69;100.00;100463.38;5052735;28;20230;-74
2023/10/14 02:08:37;;;;;;;1.83;1.23;;;;;;;15.52;100.00;100438.97;5070885;28;20198;-76
2023/10/14 02:11:06;;;;;;;3.38;1.48;;;;;;;15.56;100.00;100441.56;5070954;28;20286;-75
2023/10/14 02:13:36;;;;;;;0.93;0.93;;;;;;;15.56;100.00;100461.59;5070886;28;20238;-75
2023/10/14 02:16:07;;;;;;;1.20;1.10;;;;;;;15.43;100.00;100438.91;5070749;28;20234;-75
2023/10/14 02:18:36;;;;;;;1.63;1.52;;;;;;;15.55;100.00;100458.13;5071165;28;20675;-76
2023/10/14 02:21:08;;;;;;;2.63;1.92;;;;;;;15.55;100.00;100452.91;5071076;28;20195;-75
2023/10/14 02:23:44;;;;;;;1.60;1.50;;;;;;;15.50;100.00;100456.38;5040854;28;20199;-75
2023/10/14 02:26:22;;;;;;;1.10;1.05;;;;;;;15.38;100.00;100436.28;5074509;28;20261;-76
2023/10/14 02:28:52;;;;;;;1.63;1.10;;;;;;;15.42;100.00;100453.72;5074596;28;20567;-75
2023/10/14 02:31:28;;;;;;;1.20;1.20;;;;;;;15.26;100.00;100436.28;5074406;28;20219;-74
2023/10/14 02:33:56;;;;;;;1.40;1.30;;;;;;;15.30;100.00;100457.16;5072304;28;20196;-73
2023/10/14 02:36:28;;;;;;;1.45;1.45;;;;;;;15.21;100.00;100456.28;5074431;28;20199;-76
2023/10/14 02:38:57;;;;;;;2.25;2.15;;;;;;;15.18;100.00;100454.56;5074379;28;20198;-75
2023/10/14 02:41:29;;;;;;;1.40;1.27;;;;;;;15.12;100.00;100432.78;5074362;28;20212;-74
2023/10/14 02:44:18;;;;;;;2.05;1.95;;;;;;;15.03;100.00;100445.78;5074457;28;20194;-74
2023/10/14 02:46:46;;;;;;;1.65;1.55;;;;;;;15.02;100.00;100447.53;5058956;28;20710;-75
2023/10/14 02:49:15;;;;;;;1.52;1.42;;;;;;;14.89;100.00;100441.41;5074169;28;20248;-76
2023/10/14 02:51:43;;;;;;;1.50;1.40;;;;;;;14.64;100.00;100444.78;5074347;28;20241;-75
2023/10/14 02:54:26;;;;;;;2.03;1.70;;;;;;;14.45;100.00;100449.94;5073979;28;20684;-76
2023/10/14 02:56:59;;;;;;;1.33;1.27;;;;;;;14.55;100.00;100449.09;5074140;28;20234;-75
2023/10/14 02:59:38;;;;;;;1.60;1.52;;;;;;;14.53;100.00;100450.81;5074091;28;20205;-75
2023/10/14 03:02:14;;;;;;;1.92;1.77;;;;;;;14.48;100.00;100445.59;5074264;28;20206;-75
2023/10/14 03:04:48;;;;;;;1.35;1.35;;;;;;;14.28;100.00;100421.97;5073908;28;20285;-75
2023/10/14 03:07:23;;;;;;;1.40;1.30;;;;;;;14.42;100.00;100449.88;5073907;28;20742;-75
2023/10/14 03:09:50;;;;;;;1.65;1.55;;;;;;;14.44;100.00;100445.56;5073928;28;20250;-75
2023/10/14 03:12:19;;;;;;;2.42;1.63;;;;;;;14.17;100.00;100410.59;5073864;28;20227;-75
2023/10/14 03:14:48;;;;;;;4.57;2.90;;;;;;;14.40;100.00;100444.69;5038583;28;20199;-75
2023/10/14 03:17:23;;;;;;;1.30;1.30;;;;;;;14.44;100.00;100435.13;5073713;28;20669;-75
2023/10/14 03:19:53;;;;;;;1.23;1.10;;;;;;;14.17;100.00;100439.28;5073699;28;20252;-74
2023/10/14 03:22:23;;;;;;;1.73;1.63;;;;;;;14.24;100.00;100443.69;5073674;28;20226;-74
2023/10/14 03:24:51;;;;;;;2.22;1.35;;;;;;;14.19;100.00;100426.28;5073541;28;20201;-75
2023/10/14 03:27:20;;;;;;;1.50;1.50;;;;;;;14.26;100.00;100438.47;5073877;28;20314;-75
2023/10/14 03:29:57;;;;;;;1.70;1.50;;;;;;;14.16;100.00;100431.47;5073512;28;20195;-75
2023/10/14 03:32:32;;;;;;;1.98;1.88;;;;;;;14.13;100.00;100427.09;5041472;28;20241;-75
2023/10/14 03:35:00;;;;;;;1.02;0.98;;;;;;;14.13;100.00;100429.69;5073376;28;20225;-74
2023/10/14 03:37:27;;;;;;;1.08;1.05;;;;;;;14.14;100.00;100421.03;5073269;28;20249;-75
2023/10/14 03:42:42;;;;;;;1.00;1.00;;;;;;;14.09;100.00;100421.88;5073057;28;20203;-74
2023/10/14 03:45:19;;;;;;;2.47;2.28;;;;;;;13.98;100.00;100398.34;5073186;28;20254;-75
2023/10/14 03:47:51;;;;;;;1.88;1.77;;;;;;;14.03;100.00;100427.91;5073162;28;20313;-74
2023/10/14 03:50:23;;;;;;;1.50;1.25;;;;;;;14.04;100.00;100432.25;5073182;28;20282;-75
2023/10/14 03:52:51;;;;;;;1.63;1.60;;;;;;;14.13;100.00;100432.31;5073229;28;20207;-74
2023/10/14 03:55:22;;;;;;;1.30;1.20;;;;;;;13.98;100.00;100437.44;5073018;28;20206;-75
2023/10/14 03:57:53;;;;;;;2.45;1.63;;;;;;;14.02;100.00;100433.97;5072936;28;20206;-75
2023/10/14 04:00:29;;;;;;;2.05;1.52;;;;;;;14.00;100.00;100432.22;5072898;28;20583;-75
2023/10/14 04:02:57;;;;;;;2.22;1.77;;;;;;;13.88;100.00;100433.00;5037536;28;20194;-75
2023/10/14 04:05:27;;;;;;;1.70;1.20;;;;;;;13.72;100.00;100426.81;5072910;28;20199;-76
2023/10/14 04:07:54;;;;;;;3.22;2.80;;;;;;;13.67;100.00;100430.22;5072785;28;20241;-75
2023/10/14 04:10:23;;;;;;;1.23;1.15;;;;;;;13.70;100.00;100423.31;5072520;28;20275;-75
2023/10/14 04:12:54;;;;;;;1.13;1.10;;;;;;;13.60;100.00;100394.56;5072635;28;20604;-75
2023/10/14 04:15:44;;;;;;;1.00;1.00;;;;;;;13.72;100.00;100426.81;5072508;28;20234;-74
2023/10/14 04:18:13;;;;;;;1.50;1.42;;;;;;;13.61;100.00;100396.31;5072411;28;20740;-75
2023/10/14 04:20:46;;;;;;;1.83;1.70;;;;;;;13.73;100.00;100415.50;5072341;28;20689;-75
2023/10/14 04:23:26;;;;;;;1.20;1.20;;;;;;;13.68;100.00;100414.63;5072395;28;20210;-75
2023/10/14 04:26:02;;;;;;;1.88;1.77;;;;;;;13.55;100.00;100385.88;5072435;28;20206;-75
2023/10/14 04:28:39;;;;;;;1.50;1.40;;;;;;;13.81;100.00;100426.00;5072320;28;20588;-75
2023/10/14 04:31:09;;;;;;;0.82;0.82;;;;;;;13.82;100.00;100423.41;5072321;28;20222;-75
2023/10/14 04:33:44;;;;;;;1.30;1.23;;;;;;;13.71;100.00;100392.91;5072297;28;20217;-75
2023/10/14 04:39:12;;;;;;;2.13;2.00;;;;;;;13.90;100.00;100416.53;5072269;28;20209;-76
2023/10/14 04:41:45;;;;;;;0.98;0.98;;;;;;;13.94;100.00;100416.56;5072088;28;20198;-75
2023/10/14 04:44:13;;;;;;;2.05;1.92;;;;;;;13.97;100.00;100393.97;5071370;28;20576;-75
2023/10/14 04:46:54;;;;;;;1.00;1.00;;;;;;;13.93;100.00;100389.59;5072143;28;20230;-75
2023/10/14 04:49:35;;;;;;;1.30;1.20;;;;;;;13.87;100.00;100379.16;5071839;28;20198;-75
2023/10/14 04:52:02;;;;;;;1.88;1.40;;;;;;;14.13;100.00;100414.06;5071957;28;20230;-75
2023/10/14 04:54:29;;;;;;;0.95;0.90;;;;;;;14.09;100.00;100407.06;5071733;28;20203;-75
2023/10/14 04:56:57;;;;;;;1.58;1.48;;;;;;;14.27;100.00;100420.22;5072050;28;20199;-75
2023/10/14 04:59:28;;;;;;;1.05;1.02;;;;;;;14.34;100.00;100401.16;5071774;28;20194;-75
2023/10/14 05:01:55;;;;;;;0.95;0.95;;;;;;;14.49;100.00;100428.19;5071796;28;20210;-75
2023/10/14 05:04:29;;;;;;;2.30;1.88;;;;;;;14.49;100.00;100396.88;5071672;28;20234;-76
2023/10/14 05:07:03;;;;;;;1.85;1.75;;;;;;;14.61;100.00;100408.25;5071505;28;20228;-77
2023/10/14 05:09:30;;;;;;;3.50;1.80;;;;;;;14.60;100.00;100405.63;5071800;28;20190;-75
2023/10/14 05:11:58;;;;;;;1.00;1.00;;;;;;;14.60;100.00;100408.22;5071565;28;20662;-75
2023/10/14 05:14:36;;;;;;;1.17;0.95;;;;;;;14.68;100.00;100414.34;5071522;28;20199;-78
2023/10/14 05:17:14;;;;;;;1.15;1.08;;;;;;;14.79;100.00;100433.53;5071816;28;20607;-75
2023/10/14 05:19:43;;;;;;;8.52;2.25;;;;;;;14.74;100.00;100406.53;5072309;28;20191;-79
2023/10/14 05:22:13;;;;;;;3.88;1.58;;;;;;;14.88;100.00;100413.56;5072112;28;20203;-80
2023/10/14 05:24:48;;;;;;;1.30;1.30;;;;;;;14.75;100.00;100400.47;5071438;28;20299;-74
2023/10/14 05:27:17;;;;;;;2.38;1.35;;;;;;;14.48;100.00;100367.31;5071517;28;20283;-74
2023/10/14 05:29:50;;;;;;;1.33;1.23;;;;;;;15.01;100.00;100447.53;5071419;28;20198;-72
2023/10/14 05:32:18;;;;;;;2.08;1.80;;;;;;;14.95;100.00;100430.09;5072140;28;20289;-75
2023/10/14 05:34:46;;;;;;;11.13;1.80;;;;;;;15.09;100.00;100454.50;5071417;28;20237;-73
2023/10/14 05:37:13;;;;;;;3.25;1.27;;;;;;;15.18;100.00;100451.06;5071517;28;20207;-74
2023/10/14 05:39:40;;;;;;;2.63;1.55;;;;;;;15.01;100.00;100443.19;5071683;28;20195;-78
2023/10/14 05:42:14;;;;;;;1.02;0.77;;;;;;;14.98;100.00;100410.97;5071779;28;20210;-76
2023/10/14 05:44:46;;;;;;;2.17;1.67;;;;;;;15.27;100.00;100448.47;5072052;28;20202;-79
2023/10/14 05:47:14;;;;;;;2.70;1.40;;;;;;;15.38;100.00;100451.97;5071999;28;20218;-79
2023/10/14 05:49:41;;;;;;;7.85;3.67;;;;;;;15.50;100.00;100445.91;5071687;28;20202;-73
2023/10/14 05:52:11;;;;;;;11.18;8.48;;;;;;;16.09;100.00;100441.53;5071366;28;20447;-73
2023/10/14 05:54:38;;;;;;;3.38;3.08;;;;;;;16.62;100.00;100432.72;5069038;28;20206;-72
2023/10/14 05:57:08;;;;;;;1.75;1.65;;;;;;;16.92;100.00;100422.09;5064067;28;20225;-71
2023/10/14 05:59:36;;;;;;;3.17;2.97;;;;;;;17.27;100.00;100438.47;5044126;28;20238;-72
2023/10/14 06:02:07;;;;;;;4.38;1.80;;;;;;;17.50;100.00;100417.34;5034922;28;20227;-73
2023/10/14 06:04:39;;;;;;;2.03;1.80;;;;;;;17.96;100.00;100441.44;5059061;28;20226;-74
2023/10/14 06:07:07;;;;;;;2.58;2.38;;;;;;;18.14;100.00;100441.28;5074618;28;20258;-73
2023/10/14 06:09:34;;;;;;;7.93;1.70;;;;;;;18.24;100.00;100456.03;5074481;28;20195;-74
2023/10/14 06:12:01;;;;;;;2.08;1.38;;;;;;;17.73;100.00;100438.16;5065080;28;20199;-73
2023/10/14 06:14:29;;;;;;;2.53;1.83;;;;;;;17.48;100.00;100440.06;5070266;28;20198;-73
2023/10/14 06:16:57;;;;;;;2.45;2.25;;;;;;;17.39;100.00;100457.63;5074590;28;20195;-74
2023/10/14 06:19:24;;;;;;;1.65;1.45;;;;;;;17.45;100.00;100454.94;5074503;28;20230;-77
2023/10/14 06:21:56;;;;;;;1.67;1.58;;;;;;;17.43;100.00;100452.34;5074866;28;20209;-78
2023/10/14 06:24:23;;;;;;;1.60;1.25;;;;;;;17.21;100.00;100437.63;5074977;28;20734;-78
2023/10/14 06:26:53;;;;;;;1.27;1.15;;;;;;;16.92;100.00;100448.28;5069354;28;20199;-77
2023/10/14 06:29:20;;;;;;;3.67;2.75;;;;;;;16.72;100.00;100437.03;5066441;28;20256;-78
2023/10/14 06:31:48;;;;;;;1.13;1.13;;;;;;;16.83;100.00;100438.72;5074567;28;20191;-78
2023/10/14 06:34:15;;;;;;;1.17;1.17;;;;;;;17.07;100.00;100455.19;5074680;28;20586;-78
2023/10/14 06:36:47;;;;;;;2.33;1.77;;;;;;;16.99;100.00;100455.22;5075041;28;20268;-78
2023/10/14 06:39:26;;;;;;;1.35;1.23;;;;;;;17.06;100.00;100449.06;5074790;28;20199;-76
2023/10/14 06:41:53;;;;;;;1.23;1.10;;;;;;;17.19;100.00;100445.50;5074283;28;20260;-82
2023/10/14 06:44:26;;;;;;;4.40;1.85;;;;;;;16.88;100.00;100443.94;5074674;28;20203;-79
2023/10/14 06:46:53;;;;;;;1.10;1.10;;;;;;;17.04;100.00;100442.97;5074243;28;20195;-78
2023/10/14 06:49:22;;;;;;;1.20;1.10;;;;;;;17.20;100.00;100447.25;5071229;28;20200;-79
2023/10/14 06:51:51;;;;;;;8.80;2.00;;;;;;;17.25;100.00;100445.47;5046208;28;20593;-79
2023/10/14 06:54:25;;;;;;;1.08;0.98;;;;;;;17.38;100.00;100445.38;5074310;28;20206;-79
2023/10/14 06:56:53;;;;;;;1.65;1.45;;;;;;;17.39;100.00;100444.50;5074385;28;20281;-79
2023/10/14 06:59:20;;;;;;;1.40;1.40;;;;;;;17.14;100.00;100418.47;5055887;28;20203;-79
2023/10/14 07:01:46;;;;;;;1.38;1.27;;;;;;;17.28;100.00;100450.69;5074023;28;20666;-80
2023/10/14 07:04:13;;;;;;;1.20;1.10;;;;;;;17.18;100.00;100449.03;5060273;28;20226;-80
2023/10/14 07:06:42;;;;;;;1.80;1.67;;;;;;;17.16;100.00;100450.75;5074357;28;20667;-80
2023/10/14 07:09:17;;;;;;;8.88;1.77;;;;;;;17.21;100.00;100450.75;5073744;28;20261;-79
2023/10/14 07:11:45;;;;;;;2.03;1.83;;;;;;;17.42;100.00;100447.97;5074383;28;20272;-79
2023/10/14 07:14:12;;;;;;;3.50;1.73;;;;;;;17.51;100.00;100447.94;5074689;28;20652;-81
2023/10/14 07:16:40;;;;;;;2.38;1.33;;;;;;;17.66;100.00;100453.06;5074311;28;20280;-79
2023/10/14 07:19:07;;;;;;;1.08;1.08;;;;;;;17.38;100.00;100440.13;5074198;28;20202;-78
2023/10/14 07:21:33;;;;;;;1.30;0.93;;;;;;;17.20;100.00;100421.03;5073912;28;20211;-79
2023/10/14 07:24:05;;;;;;;3.45;1.67;;;;;;;17.30;100.00;100443.69;5073890;28;20601;-77
2023/10/14 07:26:36;;;;;;;1.98;1.33;;;;;;;17.44;100.00;100450.59;5068592;28;20199;-78
2023/10/14 07:29:05;;;;;;;1.25;1.15;;;;;;;17.49;100.00;100443.56;5048059;28;20229;-79
2023/10/14 07:31:32;;;;;;;5.03;1.80;;;;;;;17.14;100.00;100392.25;5060027;28;20202;-79
2023/10/14 07:34:02;;;;;;;2.40;1.40;;;;;;;17.57;100.00;100444.41;5073774;28;20207;-78
2023/10/14 07:36:29;;;;;;;3.40;1.65;;;;;;;17.69;100.00;100415.47;5073636;28;20202;-79
2023/10/14 07:39:02;;;;;;;1.05;1.05;;;;;;;17.83;100.00;100434.59;5073530;28;20582;-78
2023/10/14 07:41:29;;;;;;;1.40;1.30;;;;;;;18.07;100.00;100428.22;5055844;28;20206;-78
2023/10/14 07:43:55;;;;;;;1.20;1.20;;;;;;;18.06;100.00;100437.84;5073688;28;20604;-79
2023/10/14 07:46:24;;;;;;;1.80;1.67;;;;;;;18.25;100.00;100425.41;5074138;28;20222;-79
2023/10/14 07:48:53;;;;;;;2.20;1.20;;;;;;;18.44;100.00;100433.97;5073764;28;20230;-79
2023/10/14 07:51:19;;;;;;;1.13;1.13;;;;;;;18.59;100.00;100428.53;5062227;28;20207;-78
2023/10/14 07:53:46;;;;;;;1.88;1.65;;;;;;;18.62;100.00;100415.41;5070934;28;20202;-79
2023/10/14 07:56:13;;;;;;;3.72;1.52;;;;;;;18.71;100.00;100416.16;5073273;28;20207;-79
2023/10/14 07:58:40;;;;;;;2.30;1.63;;;;;;;18.81;100.00;100423.03;5073618;28;20210;-79
2023/10/14 08:01:09;;;;;;;1.50;1.50;;;;;;;18.89;100.00;100425.56;5073316;28;20195;-79
2023/10/14 08:03:38;;;;;;;2.47;1.83;;;;;;;19.00;100.00;100415.75;5072986;28;20199;-75
2023/10/14 08:06:10;;;;;;;2.88;1.90;;;;;;;19.02;100.00;100418.34;5071472;28;20198;-74
2023/10/14 08:08:47;;;;;;;6.70;1.60;;;;;;;19.18;100.00;100407.63;5060053;28;20222;-74
2023/10/14 08:11:15;;;;;;;3.33;1.65;;;;;;;19.43;100.00;100409.91;5072294;28;20286;-73
2023/10/14 08:13:42;;;;;;;1.58;1.30;;;;;;;19.59;100.00;100406.13;5072375;28;20207;-74
2023/10/14 08:16:09;;;;;;;2.40;1.00;;;;;;;19.79;100.00;100404.91;5072200;28;20229;-74
2023/10/14 08:18:37;;;;;;;6.90;2.63;;;;;;;20.04;99.76;100391.31;5071618;28;20195;-72
2023/10/14 08:21:04;;;;;;;6.15;1.27;;;;;;;20.24;98.92;100387.38;5072098;28;20221;-74
2023/10/14 08:23:31;;;;;;;2.63;1.48;;;;;;;20.30;97.09;100390.84;5072203;28;20705;-75
2023/10/14 08:25:59;;;;;;;13.00;1.85;;;;;;;20.48;96.27;100385.19;5053913;28;20198;-74
2023/10/14 08:28:27;;;;;;;1.60;1.50;;;;;;;20.54;93.33;100364.00;5071431;28;20262;-75
2023/10/14 08:30:55;;;;;;;2.30;1.98;;;;;;;20.75;91.67;100380.22;5063196;28;20231;-75
2023/10/14 08:33:24;;;;;;;4.05;1.85;;;;;;;20.81;90.97;100365.16;5067397;28;20238;-72
2023/10/14 08:35:53;;;;;;;1.65;1.00;;;;;;;20.94;89.12;100370.13;5071991;28;20718;-74
2023/10/14 08:38:22;;;;;;;1.15;1.15;;;;;;;20.86;88.63;100361.53;5071510;28;20203;-75
2023/10/14 08:40:53;;;;;;;3.90;2.13;;;;;;;21.10;88.32;100371.53;5058730;28;20207;-74
2023/10/14 08:43:22;;;;;;;2.08;1.40;;;;;;;21.14;85.74;100352.13;5071624;28;20206;-74
2023/10/14 08:45:49;;;;;;;2.50;1.50;;;;;;;20.97;84.63;100317.34;5071676;28;20251;-74
2023/10/14 08:48:17;;;;;;;2.85;1.75;;;;;;;21.26;84.30;100351.81;5071843;28;20222;-74
2023/10/14 08:50:45;;;;;;;3.03;2.65;;;;;;;21.45;83.42;100372.47;5072200;28;20599;-74
2023/10/14 08:53:14;;;;;;;2.67;1.00;;;;;;;21.49;81.17;100368.84;5071773;28;20238;-74
2023/10/14 08:55:44;;;;;;;0.82;0.82;;;;;;;21.49;81.32;100337.19;5053485;28;20245;-75
2023/10/14 08:58:13;;;;;;;1.52;1.42;;;;;;;21.68;80.87;100349.00;5071801;28;20596;-74
2023/10/14 09:00:42;;;;;;;8.80;1.83;;;;;;;21.82;80.87;100349.50;5072084;28;20207;-74
2023/10/14 09:03:10;;;;;;;2.65;2.42;;;;;;;21.39;78.20;100259.19;5071796;28;20194;-75
2023/10/14 09:05:40;;;;;;;1.40;1.30;;;;;;;22.08;78.04;100344.41;5071818;28;20272;-74
2023/10/14 09:08:08;;;;;;;2.28;1.40;;;;;;;22.10;76.35;100323.25;5036264;28;20223;-75
2023/10/14 09:10:37;;;;;;;1.50;1.38;;;;;;;22.44;75.19;100341.66;5071487;28;20729;-74
2023/10/14 09:13:08;;;;;;;1.42;1.27;;;;;;;22.58;73.00;100342.94;5071818;28;20226;-74
2023/10/14 09:15:39;;;;;;;1.08;0.90;;;;;;;22.75;72.12;100342.50;5071063;28;20224;-74
2023/10/14 09:18:11;;;;;;;2.75;1.55;;;;;;;22.91;71.61;100335.81;5037075;28;20203;-75
2023/10/14 09:20:39;;;;;;;1.38;1.27;;;;;;;23.10;70.50;100333.44;5071486;28;20244;-75
2023/10/14 09:23:18;;;;;;;1.27;0.90;;;;;;;23.22;70.17;100328.59;5071547;28;20198;-74
2023/10/14 09:25:49;;;;;;;2.42;1.17;;;;;;;23.21;70.70;100313.66;5071587;28;20199;-74
2023/10/14 09:28:19;;;;;;;2.03;1.30;;;;;;;23.26;69.28;100307.38;5071451;28;20230;-75
2023/10/14 09:30:49;;;;;;;1.23;1.02;;;;;;;23.26;68.48;100288.84;5071110;28;20226;-75
2023/10/14 09:33:18;;;;;;;3.95;1.27;;;;;;;23.46;66.50;100308.47;5071329;28;20203;-73
2023/10/14 09:35:48;;;;;;;6.78;1.58;;;;;;;23.39;66.09;100250.44;5071552;28;20238;-73
2023/10/14 09:38:19;;;;;;;2.17;1.08;;;;;;;23.66;65.33;100291.88;5071516;28;20225;-74
2023/10/14 09:40:53;;;;;;;1.58;0.95;;;;;;;23.81;63.15;100301.94;5020552;28;20611;-75
2023/10/14 09:43:23;;;;;;;0.95;0.95;;;;;;;23.83;60.07;100284.19;5071453;28;20226;-74
2023/10/14 09:45:55;;;;;;;6.85;1.55;;;;;;;23.92;59.67;100290.94;5071165;28;20195;-74
2023/10/14 09:48:25;;;;;;;1.20;1.10;;;;;;;24.09;60.13;100281.47;5071038;28;20230;-74
2023/10/14 09:50:54;;;;;;;1.98;1.38;;;;;;;24.19;58.75;100279.34;5070783;28;20245;-75
2023/10/14 09:53:26;;;;;;;3.40;1.27;;;;;;;24.46;58.37;100274.81;5069509;28;20245;-74
2023/10/14 09:55:56;;;;;;;1.35;0.90;;;;;;;24.40;56.47;100251.19;5060040;28;20203;-74
2023/10/14 09:58:25;;;;;;;0.90;0.90;;;;;;;24.51;55.51;100275.47;5070992;28;20668;-77
2023/10/14 10:00:53;;;;;;;2.17;1.20;;;;;;;24.38;53.94;100231.81;5070577;28;20286;-77
2023/10/14 10:03:21;;;;;;;2.55;1.20;;;;;;;24.68;53.97;100252.66;5066308;28;20202;-77
2023/10/14 10:06:08;;;;;;;2.33;1.15;;;;;;;24.70;52.97;100228.75;5066373;28;20203;-77
2023/10/14 10:09:06;;;;;;;3.30;1.45;;;;;;;24.94;53.08;100235.72;4989883;28;20724;-76
2023/10/14 10:11:36;;;;;;;1.67;1.35;;;;;;;25.06;52.65;100240.53;5008926;28;20590;-76
2023/10/14 10:14:10;;;;;;;5.18;1.33;;;;;;;25.11;51.91;100229.75;5009403;28;20236;-80
2023/10/14 10:16:37;;;;;;;1.85;1.02;;;;;;;25.02;51.17;100187.66;5009625;28;20255;-81
2023/10/14 10:19:05;;;;;;;17.17;1.58;;;;;;;25.24;50.21;100216.78;5009131;28;20216;-76
2023/10/14 10:21:35;;;;;;;3.30;1.45;;;;;;;25.41;50.39;100206.31;5009272;28;20658;-79
2023/10/14 10:24:20;;;;;;;1.45;1.20;;;;;;;25.55;49.36;100207.47;5008907;28;20204;-78
2023/10/14 10:27:08;;;;;;;0.98;0.98;;;;;;;25.66;49.17;100204.31;5009385;28;20197;-80
2023/10/14 10:29:43;;;;;;;0.73;0.73;;;;;;;25.76;48.61;100202.09;5008444;28;20311;-75
2023/10/14 10:32:16;;;;;;;1.27;0.93;;;;;;;25.76;48.23;100189.69;5008852;28;20209;-74
2023/10/14 10:35:16;;;;;;;1.30;1.20;;;;;;;25.90;47.00;100189.91;5008654;28;20232;-77
2023/10/14 10:37:46;;;;;;;1.23;1.13;;;;;;;25.84;47.98;100168.94;5008808;28;20205;-76
2023/10/14 10:40:15;;;;;;;2.42;1.15;;;;;;;26.11;47.56;100182.75;5008815;28;20216;-76
2023/10/14 10:42:47;;;;;;;1.85;1.05;;;;;;;26.25;46.13;100180.34;5009759;28;20704;-75
2023/10/14 10:45:20;;;;;;;3.03;1.33;;;;;;;26.27;44.75;100175.81;5012196;28;20208;-75
2023/10/14 10:47:54;;;;;;;0.80;0.80;;;;;;;26.26;44.73;100158.13;5012491;28;20262;-75
2023/10/14 10:50:21;;;;;;;0.88;0.88;;;;;;;26.32;44.90;100152.53;5012463;28;20680;-76
2023/10/14 10:53:16;;;;;;;2.38;1.90;;;;;;;26.52;43.23;100151.53;5012420;28;20205;-76
2023/10/14 10:55:46;;;;;;;10.88;1.55;;;;;;;26.57;43.50;100146.88;4986310;28;20231;-78
2023/10/14 10:58:16;;;;;;;2.85;1.02;;;;;;;26.75;43.84;100142.44;5012808;28;20197;-77
2023/10/14 11:00:45;;;;;;;0.75;0.75;;;;;;;26.59;43.21;100140.53;4980236;28;20676;-77
2023/10/14 11:03:14;;;;;;;2.35;1.10;;;;;;;26.61;42.91;100121.84;5012620;28;20243;-78
2023/10/14 11:05:42;;;;;;;1.55;1.15;;;;;;;26.66;43.11;100101.16;5012629;28;20258;-78
2023/10/14 11:08:09;;;;;;;3.50;1.67;;;;;;;26.89;42.51;100121.34;5012456;28;20205;-79
2023/10/14 11:10:39;;;;;;;0.80;0.80;;;;;;;27.15;41.92;100127.97;5013100;28;20197;-79
2023/10/14 11:13:07;;;;;;;1.90;1.05;;;;;;;27.00;41.48;100118.97;5012973;28;20640;-78
2023/10/14 11:15:38;;;;;;;1.55;1.45;;;;;;;26.80;40.81;100101.31;5066044;28;20235;-78
2023/10/14 11:18:05;;;;;;;0.68;0.68;;;;;;;26.66;41.92;100058.59;5038667;28;20210;-76
2023/10/14 11:20:35;;;;;;;1.20;1.20;;;;;;;26.98;41.04;100113.72;5074442;28;20226;-77
2023/10/14 11:23:04;;;;;;;0.90;0.90;;;;;;;26.95;41.16;100108.56;5074800;28;20252;-86
2023/10/14 11:25:31;;;;;;;3.42;1.60;;;;;;;27.06;40.87;100108.88;5074444;28;20215;-78
2023/10/14 11:27:58;;;;;;;1.65;1.55;;;;;;;27.17;40.81;100105.66;5075254;28;20231;-77
2023/10/14 11:30:27;;;;;;;1.05;1.05;;;;;;;27.20;40.30;100102.81;5074807;28;20673;-78
2023/10/14 11:32:58;;;;;;;0.95;0.90;;;;;;;27.16;40.28;100098.59;5074971;28;20761;-78
2023/10/14 11:35:29;;;;;;;1.23;0.98;;;;;;;27.26;40.81;100102.47;5074959;28;20235;-79
2023/10/14 11:38:00;;;;;;;0.95;0.93;;;;;;;27.38;39.89;100092.97;5075237;28;20238;-80
2023/10/14 11:40:33;;;;;;;0.90;0.90;;;;;;;27.41;39.71;100092.81;5074734;28;20203;-79